createdAt,value
2017-08-11T00:02:03.119Z,13.4
2017-08-11T00:07:02.876Z,13.2
2017-08-11T00:12:02.778Z,13.2
2017-08-11T00:17:03.561Z,13.2
2017-08-11T00:22:03.330Z,13.4
2017-08-11T00:27:03.200Z,13.4
2017-08-11T00:32:07.989Z,13.3
2017-08-11T00:37:02.772Z,13.2
2017-08-11T00:42:03.425Z,13.2
2017-08-11T00:47:03.125Z,13.1
2017-08-11T00:52:03.474Z,13.1
2017-08-11T00:57:03.181Z,13.2
2017-08-11T01:02:03.152Z,13.3
2017-08-11T01:07:03.006Z,13.3
2017-08-11T01:12:03.151Z,13.4
2017-08-11T01:17:03.250Z,13.3
2017-08-11T01:22:03.555Z,13.4
2017-08-11T01:27:03.294Z,13.3
2017-08-11T01:32:03.184Z,13.3
2017-08-11T01:37:02.759Z,13.2
2017-08-11T01:42:03.487Z,13.1
2017-08-11T01:47:03.317Z,12.7
2017-08-11T01:52:03.110Z,12.7
2017-08-11T01:57:02.863Z,12.7
2017-08-11T02:02:03.685Z,12.5
2017-08-11T02:07:02.811Z,12.4
2017-08-11T02:12:02.892Z,12.4
2017-08-11T02:17:03.201Z,12.2
2017-08-11T02:22:03.107Z,12.1
2017-08-11T02:27:02.724Z,12.0
2017-08-11T02:32:03.505Z,11.8
2017-08-11T02:37:03.211Z,11.7
2017-08-11T02:42:03.496Z,11.6
2017-08-11T02:47:02.992Z,11.5
2017-08-11T02:52:03.245Z,11.6
2017-08-11T02:57:03.478Z,11.5
2017-08-11T03:02:02.879Z,11.6
2017-08-11T03:07:03.295Z,11.6
2017-08-11T03:12:02.750Z,11.5
2017-08-11T03:17:03.127Z,11.5
2017-08-11T03:22:03.435Z,11.4
2017-08-11T03:27:02.771Z,11.3
2017-08-11T03:32:04.510Z,11.3
2017-08-11T03:37:03.519Z,11.2
2017-08-11T03:42:02.941Z,11.2
2017-08-11T03:47:18.463Z,11.2
2017-08-11T03:52:03.009Z,11.2
2017-08-11T03:57:03.354Z,11.1
2017-08-11T04:02:13.193Z,11.2
2017-08-11T04:07:03.153Z,11.2
2017-08-11T04:12:03.205Z,11.3
2017-08-11T04:17:14.348Z,11.4
2017-08-11T04:22:03.329Z,11.6
2017-08-11T04:27:03.650Z,11.7
2017-08-11T04:32:13.588Z,11.9
2017-08-11T04:37:03.415Z,12.1
2017-08-11T04:42:02.808Z,12.1
2017-08-11T04:47:13.835Z,12.3
2017-08-11T04:52:02.633Z,12.5
2017-08-11T04:57:03.091Z,12.5
2017-08-11T05:02:18.059Z,12.6
2017-08-11T05:07:03.249Z,12.6
2017-08-11T05:12:02.932Z,12.8
2017-08-11T05:17:18.156Z,12.9
2017-08-11T05:22:02.743Z,12.9
2017-08-11T05:27:03.204Z,13.0
2017-08-11T05:32:14.159Z,13.0
2017-08-11T05:37:02.754Z,13.2
2017-08-11T05:42:03.220Z,13.8
2017-08-11T05:47:14.213Z,14.0
2017-08-11T05:52:02.997Z,14.0
2017-08-11T05:57:03.381Z,14.5
2017-08-11T06:02:13.209Z,14.7
2017-08-11T06:07:03.463Z,14.8
2017-08-11T06:12:03.132Z,14.8
2017-08-11T06:17:13.770Z,14.9
2017-08-11T06:22:03.272Z,14.9
2017-08-11T06:27:03.618Z,14.9
2017-08-11T06:32:17.528Z,14.9
2017-08-11T06:37:03.290Z,14.8
2017-08-11T06:42:02.621Z,15.1
2017-08-11T06:47:17.783Z,15.7
2017-08-11T06:52:03.045Z,16.5
2017-08-11T06:57:03.333Z,16.5
2017-08-11T07:02:17.457Z,18.1
2017-08-11T07:07:02.972Z,18.0
2017-08-11T07:12:03.546Z,18.7
2017-08-11T07:22:02.854Z,18.5
2017-08-11T07:27:03.327Z,19.4
2017-08-11T07:32:13.051Z,19.4
2017-08-11T07:37:03.378Z,19.7
2017-08-11T07:42:02.863Z,19.9
2017-08-11T07:47:13.980Z,19.8
2017-08-11T07:52:03.282Z,19.8
2017-08-11T07:57:02.845Z,19.5
2017-08-11T08:02:13.783Z,19.1
2017-08-11T08:07:02.943Z,18.2
2017-08-11T08:12:03.440Z,18.3
2017-08-11T08:17:13.506Z,18.2
2017-08-11T08:22:03.431Z,18.3
2017-08-11T08:27:02.902Z,18.4
2017-08-11T08:32:13.876Z,18.4
2017-08-11T08:37:02.709Z,18.9
2017-08-11T08:42:03.182Z,18.8
2017-08-11T08:52:03.312Z,18.8
2017-08-11T08:57:02.745Z,18.6
2017-08-11T09:02:13.789Z,18.5
2017-08-11T09:07:03.433Z,17.8
2017-08-11T09:12:03.057Z,17.5
2017-08-11T09:17:14.017Z,17.5
2017-08-11T09:22:03.188Z,17.4
2017-08-11T09:27:03.589Z,17.4
2017-08-11T09:32:13.247Z,17.5
2017-08-11T09:37:03.222Z,17.6
2017-08-11T09:42:02.687Z,17.7
2017-08-11T09:47:13.747Z,17.7
2017-08-11T09:52:03.035Z,18.1
2017-08-11T09:57:03.413Z,18.6
2017-08-11T10:02:13.582Z,18.7
2017-08-11T10:07:03.407Z,18.4
2017-08-11T10:12:03.090Z,18.1
2017-08-11T10:17:13.989Z,17.9
2017-08-11T10:22:02.810Z,17.7
2017-08-11T10:27:03.281Z,17.7
2017-08-11T10:32:14.023Z,17.6
2017-08-11T10:37:03.582Z,17.8
2017-08-11T10:42:03.059Z,17.7
2017-08-11T10:47:14.053Z,17.8
2017-08-11T10:52:03.005Z,17.8
2017-08-11T10:57:03.375Z,18.2
2017-08-11T11:02:17.825Z,19.6
2017-08-11T11:07:02.957Z,19.4
2017-08-11T11:12:03.442Z,19.4
2017-08-11T11:17:13.611Z,19.4
2017-08-11T11:22:03.098Z,19.3
2017-08-11T11:27:03.483Z,19.3
2017-08-11T11:32:13.579Z,19.1
2017-08-11T11:37:03.368Z,19.1
2017-08-11T11:42:02.827Z,19.2
2017-08-11T11:52:02.770Z,18.7
2017-08-11T11:57:03.268Z,18.7
2017-08-11T12:02:13.279Z,18.3
2017-08-11T12:07:03.274Z,18.2
2017-08-11T12:12:02.949Z,18.2
2017-08-11T12:17:14.060Z,18.0
2017-08-11T12:22:03.218Z,18.0
2017-08-11T12:27:03.509Z,18.1
2017-08-11T12:32:13.648Z,17.9
2017-08-11T12:37:03.417Z,17.7
2017-08-11T12:42:02.846Z,17.8
2017-08-11T12:47:14.050Z,17.7
2017-08-11T12:52:02.902Z,17.7
2017-08-11T12:57:03.422Z,17.6
2017-08-11T13:02:16.655Z,17.4
2017-08-11T13:07:02.921Z,17.2
2017-08-11T13:12:03.488Z,17.2
2017-08-11T13:17:13.296Z,17.0
2017-08-11T13:22:03.081Z,16.8
2017-08-11T13:27:03.519Z,16.7
2017-08-11T13:32:13.532Z,16.4
2017-08-11T13:37:03.382Z,16.3
2017-08-11T13:42:02.866Z,16.3
2017-08-11T13:47:14.001Z,16.4
2017-08-11T13:52:02.700Z,16.4
2017-08-11T13:57:03.223Z,16.4
2017-08-11T14:02:17.266Z,16.4
2017-08-11T14:07:03.394Z,16.4
2017-08-11T14:12:02.928Z,16.5
2017-08-11T14:17:18.275Z,16.6
2017-08-11T14:22:03.532Z,16.5
2017-08-11T14:27:02.924Z,16.7
2017-08-11T14:32:13.915Z,16.7
2017-08-11T14:37:03.249Z,16.6
2017-08-11T14:42:02.669Z,16.5
2017-08-11T14:47:13.684Z,16.5
2017-08-11T14:52:03.221Z,16.5
2017-08-11T14:57:03.482Z,16.5
2017-08-11T15:02:13.245Z,16.4
2017-08-11T15:07:03.063Z,16.3
2017-08-11T15:12:03.474Z,16.2
2017-08-11T15:17:13.490Z,16.2
2017-08-11T15:22:03.377Z,16.2
2017-08-11T15:27:02.925Z,16.2
2017-08-11T15:37:02.847Z,16.2
2017-08-11T15:42:03.359Z,16.2
2017-08-11T15:47:13.091Z,16.1
2017-08-11T15:52:03.244Z,16.1
2017-08-11T15:57:03.334Z,16.1
2017-08-11T16:02:13.158Z,16.1
2017-08-11T16:07:03.277Z,16.1
2017-08-11T16:12:03.014Z,16.1
2017-08-11T16:17:18.217Z,16.1
2017-08-11T16:22:02.941Z,16.1
2017-08-11T16:27:03.457Z,16.1
2017-08-11T16:32:17.553Z,16.2
2017-08-11T16:37:03.350Z,16.2
2017-08-11T16:42:02.803Z,16.2
2017-08-11T16:52:02.750Z,16.3
2017-08-11T16:57:03.237Z,16.3
2017-08-11T17:02:18.287Z,16.4
2017-08-11T17:07:03.404Z,16.4
2017-08-11T17:12:02.861Z,16.3
2017-08-11T17:17:14.035Z,16.3
2017-08-11T17:22:02.819Z,16.3
2017-08-11T17:27:03.316Z,16.2
2017-08-11T17:32:18.033Z,16.3
2017-08-11T17:37:03.370Z,16.3
2017-08-11T17:42:02.694Z,16.5
2017-08-11T17:47:13.913Z,16.5
2017-08-11T17:52:02.790Z,16.2
2017-08-11T17:57:03.366Z,16.1
2017-08-11T18:02:12.302Z,16.0
2017-08-11T18:07:03.202Z,16.0
2017-08-11T18:12:03.082Z,15.9
2017-08-11T18:17:18.433Z,15.9
2017-08-11T18:22:02.720Z,16.0
2017-08-11T18:27:02.852Z,16.1
2017-08-11T18:32:13.435Z,16.2
2017-08-11T18:37:03.501Z,16.3
2017-08-11T18:42:02.912Z,16.3
2017-08-11T18:47:13.704Z,16.4
2017-08-11T18:52:02.893Z,16.4
2017-08-11T18:57:03.434Z,16.4
2017-08-11T19:02:13.517Z,16.0
2017-08-11T19:07:03.275Z,15.9
2017-08-11T19:12:03.003Z,15.8
2017-08-11T19:17:04.251Z,15.7
2017-08-11T19:22:02.784Z,15.8
2017-08-11T19:27:03.113Z,15.7
2017-08-11T19:32:03.490Z,15.8
2017-08-11T19:37:02.941Z,16.0
2017-08-11T19:42:03.088Z,16.0
2017-08-11T19:47:03.460Z,16.0
2017-08-11T19:52:02.893Z,15.9
2017-08-11T19:57:03.117Z,15.9
2017-08-11T20:02:04.250Z,16.1
2017-08-11T20:07:02.876Z,16.2
2017-08-11T20:12:03.441Z,16.2
2017-08-11T20:17:03.141Z,16.2
2017-08-11T20:22:03.277Z,16.3
2017-08-11T20:27:03.537Z,16.3
2017-08-11T20:32:02.978Z,16.3
2017-08-11T20:37:03.319Z,16.3
2017-08-11T20:42:03.617Z,16.3
2017-08-11T20:47:03.276Z,16.4
2017-08-11T20:52:03.378Z,16.3
2017-08-11T20:57:02.732Z,16.3
2017-08-11T21:02:03.545Z,16.2
2017-08-11T21:07:03.491Z,16.2
2017-08-11T21:12:03.040Z,16.1
2017-08-11T21:17:03.595Z,15.9
2017-08-11T21:22:02.750Z,15.7
2017-08-11T21:27:03.115Z,15.6
2017-08-11T21:32:03.331Z,15.6
2017-08-11T21:37:02.749Z,15.5
2017-08-11T21:42:03.047Z,15.5
2017-08-11T21:47:03.420Z,15.4
2017-08-11T21:52:02.786Z,15.4
2017-08-11T21:57:03.108Z,15.4
2017-08-11T22:02:03.569Z,15.3
2017-08-11T22:07:02.934Z,15.3
2017-08-11T22:12:03.124Z,15.3
2017-08-11T22:22:03.265Z,15.4
2017-08-11T22:27:03.358Z,15.4
2017-08-11T22:32:02.864Z,15.4
2017-08-11T22:37:03.409Z,15.4
2017-08-11T22:42:03.014Z,15.3
2017-08-11T22:47:03.463Z,15.3
2017-08-11T22:52:03.574Z,15.3
2017-08-11T22:57:03.003Z,15.2
2017-08-11T23:02:02.673Z,15.2
2017-08-11T23:07:03.106Z,15.2
2017-08-11T23:12:02.858Z,15.2
2017-08-11T23:17:03.608Z,15.2
2017-08-11T23:22:03.325Z,15.2
2017-08-11T23:27:03.051Z,15.2
2017-08-11T23:32:02.809Z,15.2
2017-08-11T23:37:03.136Z,15.2
2017-08-11T23:42:02.949Z,15.1
2017-08-11T23:47:02.810Z,15.1
2017-08-11T23:52:03.130Z,15.2
2017-08-11T23:57:02.793Z,15.1
